SBPK/PET METAR and TAF weather

Enter ICAO airport designator
Station Type Date Time Source
SBPK METAR 2020/07/11 20:00 UTC NOAA

SBPK 112000Z 20004KT CAVOK 15/06 Q1014


Station Type Date Time Source
SBPK Decoded METAR 2020/07/11 20:00 UTC NOAA

Pelotas, Brazil (SBPK) 31-52S 052-21W 13M
Jul 11, 2020 - 04:00 PM EDT / 2020.07.11 2000 UTC
Wind: from the SSW (200 degrees) at 5 MPH (4 KT):0
Visibility: greater than 7 mile(s):0
Temperature: 59 F (15 C)
Dew Point: 42 F (6 C)
Relative Humidity: 54%
Pressure (altimeter): 29.94 in. Hg (1014 hPa)
ob: SBPK 112000Z 20004KT CAVOK 15/06 Q1014
cycle: 20

Station Type Date Time Source
SBPK TAF 2020/07/11 18:51 UTC NOAA

TAF SBPK 111500Z 1118/1218 09006KT 9999 SCT030 TX18/1118Z TN12/1205Z
TEMPO 1118/1121 4000 -RA BKN012
BECMG 1200/1202 8000 SCT020
BECMG 1208/1210 23008KT SCT010
BECMG 1212/1214 9999 SCT030
RMK PEA

Example: see airport list